sensor_id;sensor_type;location;lat;lon;timestamp;pressure;altitude;pressure_sealevel;temperature;humidity
47742;BME280;33504;52.066;6.096;2023-02-28T00:00:51;103081.36;;;3.34;39.88
47742;BME280;33504;52.066;6.096;2023-02-28T00:03:18;103090.82;;;3.46;39.91
47742;BME280;33504;52.066;6.096;2023-02-28T00:05:45;103094.40;;;3.73;39.83
47742;BME280;33504;52.066;6.096;2023-02-28T00:08:12;103095.83;;;3.57;39.77
47742;BME280;33504;52.066;6.096;2023-02-28T00:10:39;103089.74;;;3.64;39.79
47742;BME280;33504;52.066;6.096;2023-02-28T00:13:07;103086.22;;;3.70;39.85
47742;BME280;33504;52.066;6.096;2023-02-28T00:15:34;103087.64;;;3.77;39.80
47742;BME280;33504;52.066;6.096;2023-02-28T00:18:02;103089.22;;;3.79;39.76
47742;BME280;33504;52.066;6.096;2023-02-28T00:20:29;103089.23;;;3.78;39.80
47742;BME280;33504;52.066;6.096;2023-02-28T00:22:56;103087.05;;;3.76;39.84
47742;BME280;33504;52.066;6.096;2023-02-28T00:25:25;103084.13;;;3.77;39.72
47742;BME280;33504;52.066;6.096;2023-02-28T00:27:52;103081.66;;;3.77;39.51
47742;BME280;33504;52.066;6.096;2023-02-28T00:30:20;103083.03;;;3.78;39.46
47742;BME280;33504;52.066;6.096;2023-02-28T00:32:49;103083.10;;;3.82;39.47
47742;BME280;33504;52.066;6.096;2023-02-28T00:35:17;103080.98;;;3.85;39.34
47742;BME280;33504;52.066;6.096;2023-02-28T00:37:44;103085.71;;;3.91;39.44
47742;BME280;33504;52.066;6.096;2023-02-28T00:40:11;103085.20;;;3.71;39.54
47742;BME280;33504;52.066;6.096;2023-02-28T00:42:38;103086.84;;;4.05;39.61
47742;BME280;33504;52.066;6.096;2023-02-28T00:45:07;103087.93;;;4.11;39.71
47742;BME280;33504;52.066;6.096;2023-02-28T00:47:34;103082.81;;;4.19;39.83
47742;BME280;33504;52.066;6.096;2023-02-28T00:50:02;103084.80;;;3.97;39.76
47742;BME280;33504;52.066;6.096;2023-02-28T00:52:29;103083.57;;;4.26;39.97
47742;BME280;33504;52.066;6.096;2023-02-28T00:54:55;103088.42;;;4.30;39.84
47742;BME280;33504;52.066;6.096;2023-02-28T00:57:23;103088.33;;;4.06;39.87
47742;BME280;33504;52.066;6.096;2023-02-28T00:59:50;103078.48;;;4.34;39.88
47742;BME280;33504;52.066;6.096;2023-02-28T01:02:17;103079.08;;;4.29;39.93
47742;BME280;33504;52.066;6.096;2023-02-28T01:04:44;103079.66;;;4.21;39.99
47742;BME280;33504;52.066;6.096;2023-02-28T01:07:11;103077.67;;;4.17;40.16
47742;BME280;33504;52.066;6.096;2023-02-28T01:09:38;103069.30;;;4.08;40.23
47742;BME280;33504;52.066;6.096;2023-02-28T01:12:05;103077.20;;;4.08;40.39
47742;BME280;33504;52.066;6.096;2023-02-28T01:14:32;103091.69;;;3.82;40.38
47742;BME280;33504;52.066;6.096;2023-02-28T01:17:00;103083.68;;;4.15;40.50
47742;BME280;33504;52.066;6.096;2023-02-28T01:19:27;103083.65;;;4.11;40.40
47742;BME280;33504;52.066;6.096;2023-02-28T01:21:54;103083.73;;;3.83;40.49
47742;BME280;33504;52.066;6.096;2023-02-28T01:24:21;103086.25;;;4.04;40.49
47742;BME280;33504;52.066;6.096;2023-02-28T01:26:48;103085.24;;;4.00;40.57
47742;BME280;33504;52.066;6.096;2023-02-28T01:29:15;103085.52;;;4.06;40.76
47742;BME280;33504;52.066;6.096;2023-02-28T01:31:42;103073.75;;;4.02;40.66
47742;BME280;33504;52.066;6.096;2023-02-28T01:34:09;103084.98;;;4.04;40.73
47742;BME280;33504;52.066;6.096;2023-02-28T01:36:36;103080.59;;;4.10;40.75
47742;BME280;33504;52.066;6.096;2023-02-28T01:39:03;103082.96;;;4.21;40.71
47742;BME280;33504;52.066;6.096;2023-02-28T01:41:33;103081.19;;;4.27;40.63
47742;BME280;33504;52.066;6.096;2023-02-28T01:44:04;103080.62;;;4.30;40.45
47742;BME280;33504;52.066;6.096;2023-02-28T01:46:32;103077.01;;;4.34;40.22
47742;BME280;33504;52.066;6.096;2023-02-28T01:49:05;103074.77;;;4.32;39.95
47742;BME280;33504;52.066;6.096;2023-02-28T01:51:39;103071.01;;;4.29;39.96
47742;BME280;33504;52.066;6.096;2023-02-28T01:54:12;103067.01;;;4.34;39.96
47742;BME280;33504;52.066;6.096;2023-02-28T01:56:44;103067.74;;;4.16;39.88
47742;BME280;33504;52.066;6.096;2023-02-28T01:59:15;103072.34;;;4.23;39.94
47742;BME280;33504;52.066;6.096;2023-02-28T02:01:47;103072.37;;;4.25;39.93
47742;BME280;33504;52.066;6.096;2023-02-28T02:04:15;103070.93;;;4.58;40.07
47742;BME280;33504;52.066;6.096;2023-02-28T02:06:44;103074.19;;;4.35;40.10
47742;BME280;33504;52.066;6.096;2023-02-28T02:09:13;103072.66;;;4.39;40.26
47742;BME280;33504;52.066;6.096;2023-02-28T02:11:41;103072.35;;;4.69;40.23
47742;BME280;33504;52.066;6.096;2023-02-28T02:14:26;103076.39;;;4.72;40.40
47742;BME280;33504;52.066;6.096;2023-02-28T02:17:07;103071.71;;;4.72;40.27
47742;BME280;33504;52.066;6.096;2023-02-28T02:19:56;103064.68;;;4.50;40.29
47742;BME280;33504;52.066;6.096;2023-02-28T02:23:03;103063.46;;;4.51;40.24
47742;BME280;33504;52.066;6.096;2023-02-28T02:25:38;103064.46;;;4.56;40.32
47742;BME280;33504;52.066;6.096;2023-02-28T02:28:22;103065.26;;;4.58;40.29
47742;BME280;33504;52.066;6.096;2023-02-28T02:31:06;103065.54;;;4.58;40.37
47742;BME280;33504;52.066;6.096;2023-02-28T02:34:44;103064.57;;;5.36;40.36
47742;BME280;33504;52.066;6.096;2023-02-28T02:37:24;103061.46;;;4.59;40.48
47742;BME280;33504;52.066;6.096;2023-02-28T02:39:56;103065.49;;;4.62;40.37
47742;BME280;33504;52.066;6.096;2023-02-28T02:42:29;103066.78;;;4.64;40.48
47742;BME280;33504;52.066;6.096;2023-02-28T02:45:03;103068.62;;;4.67;40.48
47742;BME280;33504;52.066;6.096;2023-02-28T02:47:35;103065.48;;;4.68;40.55
47742;BME280;33504;52.066;6.096;2023-02-28T02:50:05;103067.95;;;4.68;40.47
47742;BME280;33504;52.066;6.096;2023-02-28T02:52:38;103072.49;;;4.70;40.52
47742;BME280;33504;52.066;6.096;2023-02-28T02:55:07;103067.28;;;4.69;40.60
47742;BME280;33504;52.066;6.096;2023-02-28T02:57:38;103068.25;;;4.65;40.55
47742;BME280;33504;52.066;6.096;2023-02-28T03:00:09;103077.04;;;4.61;40.38
47742;BME280;33504;52.066;6.096;2023-02-28T03:02:38;103082.25;;;4.52;40.11
47742;BME280;33504;52.066;6.096;2023-02-28T03:05:12;103079.09;;;4.50;40.01
47742;BME280;33504;52.066;6.096;2023-02-28T03:07:41;103080.77;;;4.47;40.07
47742;BME280;33504;52.066;6.096;2023-02-28T03:10:29;103079.72;;;4.73;40.04
47742;BME280;33504;52.066;6.096;2023-02-28T03:13:05;103082.51;;;4.44;40.04
47742;BME280;33504;52.066;6.096;2023-02-28T03:15:46;103084.80;;;4.40;40.07
47742;BME280;33504;52.066;6.096;2023-02-28T03:18:22;103081.06;;;4.40;40.32
47742;BME280;33504;52.066;6.096;2023-02-28T03:20:58;103078.96;;;4.68;40.58
47742;BME280;33504;52.066;6.096;2023-02-28T03:23:34;103080.62;;;4.40;40.79
47742;BME280;33504;52.066;6.096;2023-02-28T03:26:06;103077.94;;;4.39;40.97
47742;BME280;33504;52.066;6.096;2023-02-28T03:28:42;103078.16;;;4.66;41.06
47742;BME280;33504;52.066;6.096;2023-02-28T03:31:14;103081.63;;;4.39;41.15
47742;BME280;33504;52.066;6.096;2023-02-28T03:33:46;103082.52;;;4.10;41.13
47742;BME280;33504;52.066;6.096;2023-02-28T03:36:18;103085.26;;;4.27;41.20
47742;BME280;33504;52.066;6.096;2023-02-28T03:38:49;103081.05;;;4.20;41.29
47742;BME280;33504;52.066;6.096;2023-02-28T03:41:21;103086.83;;;4.14;41.43
47742;BME280;33504;52.066;6.096;2023-02-28T03:43:50;103082.70;;;4.30;41.51
47742;BME280;33504;52.066;6.096;2023-02-28T03:46:22;103079.88;;;4.21;41.58
47742;BME280;33504;52.066;6.096;2023-02-28T03:48:55;103076.02;;;4.11;41.75
47742;BME280;33504;52.066;6.096;2023-02-28T03:51:25;103076.94;;;4.01;41.72
47742;BME280;33504;52.066;6.096;2023-02-28T03:53:57;103076.41;;;3.93;41.90
47742;BME280;33504;52.066;6.096;2023-02-28T03:56:31;103072.94;;;4.05;41.99
47742;BME280;33504;52.066;6.096;2023-02-28T03:59:04;103067.55;;;3.78;42.13
47742;BME280;33504;52.066;6.096;2023-02-28T04:01:36;103068.31;;;3.79;42.13
47742;BME280;33504;52.066;6.096;2023-02-28T04:04:05;103066.77;;;3.79;42.01
47742;BME280;33504;52.066;6.096;2023-02-28T04:06:33;103062.68;;;3.82;42.02
47742;BME280;33504;52.066;6.096;2023-02-28T04:09:00;103065.24;;;3.84;41.97
47742;BME280;33504;52.066;6.096;2023-02-28T04:11:32;103061.73;;;3.84;41.91
47742;BME280;33504;52.066;6.096;2023-02-28T04:13:59;103069.84;;;3.86;41.67
47742;BME280;33504;52.066;6.096;2023-02-28T04:16:26;103075.76;;;3.66;41.50
47742;BME280;33504;52.066;6.096;2023-02-28T04:18:53;103069.15;;;3.95;41.20
47742;BME280;33504;52.066;6.096;2023-02-28T04:21:19;103064.52;;;3.97;40.99
47742;BME280;33504;52.066;6.096;2023-02-28T04:23:47;103073.36;;;3.96;40.87
47742;BME280;33504;52.066;6.096;2023-02-28T04:26:14;103065.94;;;3.98;41.01
47742;BME280;33504;52.066;6.096;2023-02-28T04:28:40;103064.32;;;4.00;41.00
47742;BME280;33504;52.066;6.096;2023-02-28T04:31:08;103065.73;;;3.75;40.81
47742;BME280;33504;52.066;6.096;2023-02-28T04:33:36;103065.27;;;3.98;40.84
47742;BME280;33504;52.066;6.096;2023-02-28T04:36:06;103062.87;;;3.71;40.92
47742;BME280;33504;52.066;6.096;2023-02-28T04:38:34;103061.99;;;3.97;41.20
47742;BME280;33504;52.066;6.096;2023-02-28T04:41:03;103061.00;;;3.97;41.28
47742;BME280;33504;52.066;6.096;2023-02-28T04:43:31;103062.92;;;3.98;41.34
47742;BME280;33504;52.066;6.096;2023-02-28T04:46:01;103056.07;;;3.69;41.39
47742;BME280;33504;52.066;6.096;2023-02-28T04:48:30;103061.26;;;3.66;41.33
47742;BME280;33504;52.066;6.096;2023-02-28T04:51:00;103065.77;;;3.92;41.39
47742;BME280;33504;52.066;6.096;2023-02-28T04:53:28;103070.92;;;4.16;41.36
47742;BME280;33504;52.066;6.096;2023-02-28T04:55:56;103071.75;;;3.93;41.34
47742;BME280;33504;52.066;6.096;2023-02-28T04:58:23;103069.87;;;3.94;41.38
47742;BME280;33504;52.066;6.096;2023-02-28T05:00:51;103070.11;;;4.20;41.40
47742;BME280;33504;52.066;6.096;2023-02-28T05:03:18;103066.67;;;3.69;41.43
47742;BME280;33504;52.066;6.096;2023-02-28T05:05:45;103068.24;;;3.98;41.29
47742;BME280;33504;52.066;6.096;2023-02-28T05:08:12;103073.53;;;4.01;41.21
47742;BME280;33504;52.066;6.096;2023-02-28T05:10:38;103067.95;;;4.05;41.38
47742;BME280;33504;52.066;6.096;2023-02-28T05:13:05;103070.35;;;3.81;41.28
47742;BME280;33504;52.066;6.096;2023-02-28T05:15:32;103067.49;;;4.08;40.95
47742;BME280;33504;52.066;6.096;2023-02-28T05:17:59;103067.02;;;4.11;40.66
47742;BME280;33504;52.066;6.096;2023-02-28T05:20:26;103068.56;;;3.83;40.40
47742;BME280;33504;52.066;6.096;2023-02-28T05:22:53;103069.88;;;3.84;40.31
47742;BME280;33504;52.066;6.096;2023-02-28T05:25:21;103077.81;;;4.14;40.24
47742;BME280;33504;52.066;6.096;2023-02-28T05:27:48;103075.86;;;4.17;40.13
47742;BME280;33504;52.066;6.096;2023-02-28T05:30:16;103081.67;;;4.17;40.11
47742;BME280;33504;52.066;6.096;2023-02-28T05:32:43;103075.89;;;3.93;40.02
47742;BME280;33504;52.066;6.096;2023-02-28T05:35:11;103078.34;;;4.21;39.91
47742;BME280;33504;52.066;6.096;2023-02-28T05:37:38;103084.66;;;4.15;39.86
47742;BME280;33504;52.066;6.096;2023-02-28T05:40:07;103086.99;;;3.86;39.97
47742;BME280;33504;52.066;6.096;2023-02-28T05:42:35;103072.59;;;3.81;40.33
47742;BME280;33504;52.066;6.096;2023-02-28T05:45:02;103069.95;;;4.09;40.34
47742;BME280;33504;52.066;6.096;2023-02-28T05:47:30;103084.06;;;4.20;40.29
47742;BME280;33504;52.066;6.096;2023-02-28T05:49:58;103087.13;;;4.00;40.26
47742;BME280;33504;52.066;6.096;2023-02-28T05:52:24;103084.28;;;4.37;40.12
47742;BME280;33504;52.066;6.096;2023-02-28T05:54:51;103084.21;;;4.39;40.09
47742;BME280;33504;52.066;6.096;2023-02-28T05:57:19;103079.53;;;4.34;39.92
47742;BME280;33504;52.066;6.096;2023-02-28T05:59:45;103061.42;;;4.33;39.97
47742;BME280;33504;52.066;6.096;2023-02-28T06:02:15;103072.98;;;4.36;40.02
47742;BME280;33504;52.066;6.096;2023-02-28T06:04:43;103088.85;;;4.15;40.01
47742;BME280;33504;52.066;6.096;2023-02-28T06:07:11;103096.85;;;4.44;39.96
47742;BME280;33504;52.066;6.096;2023-02-28T06:09:39;103092.41;;;4.47;39.87
47742;BME280;33504;52.066;6.096;2023-02-28T06:12:06;103091.52;;;4.54;39.84
47742;BME280;33504;52.066;6.096;2023-02-28T06:14:34;103095.11;;;4.31;39.77
47742;BME280;33504;52.066;6.096;2023-02-28T06:17:01;103097.35;;;4.32;39.68
47742;BME280;33504;52.066;6.096;2023-02-28T06:19:29;103093.77;;;4.33;39.53
47742;BME280;33504;52.066;6.096;2023-02-28T06:21:57;103094.89;;;4.36;39.64
47742;BME280;33504;52.066;6.096;2023-02-28T06:24:25;103098.94;;;4.38;39.69
47742;BME280;33504;52.066;6.096;2023-02-28T06:26:53;103107.21;;;4.40;39.68
47742;BME280;33504;52.066;6.096;2023-02-28T06:29:20;103104.42;;;4.44;39.69
47742;BME280;33504;52.066;6.096;2023-02-28T06:31:48;103105.77;;;4.47;39.58
47742;BME280;33504;52.066;6.096;2023-02-28T06:34:16;103103.60;;;4.76;39.48
47742;BME280;33504;52.066;6.096;2023-02-28T06:36:43;103115.80;;;4.76;39.48
47742;BME280;33504;52.066;6.096;2023-02-28T06:39:10;103117.58;;;4.30;39.59
47742;BME280;33504;52.066;6.096;2023-02-28T06:41:37;103118.69;;;4.78;39.47
47742;BME280;33504;52.066;6.096;2023-02-28T06:44:05;103124.44;;;4.53;39.61
47742;BME280;33504;52.066;6.096;2023-02-28T06:46:32;103131.62;;;4.32;39.71
47742;BME280;33504;52.066;6.096;2023-02-28T06:48:59;103129.86;;;4.55;39.95
47742;BME280;33504;52.066;6.096;2023-02-28T06:51:26;103128.54;;;4.55;40.01
47742;BME280;33504;52.066;6.096;2023-02-28T06:53:53;103132.25;;;4.57;40.00
47742;BME280;33504;52.066;6.096;2023-02-28T06:56:20;103132.17;;;4.87;39.87
47742;BME280;33504;52.066;6.096;2023-02-28T06:58:48;103131.70;;;4.85;39.84
47742;BME280;33504;52.066;6.096;2023-02-28T07:01:16;103132.96;;;4.58;39.87
47742;BME280;33504;52.066;6.096;2023-02-28T07:03:43;103135.59;;;4.37;39.94
47742;BME280;33504;52.066;6.096;2023-02-28T07:06:10;103134.36;;;4.60;39.98
47742;BME280;33504;52.066;6.096;2023-02-28T07:08:37;103137.70;;;4.40;39.90
47742;BME280;33504;52.066;6.096;2023-02-28T07:11:04;103136.53;;;4.64;40.00
47742;BME280;33504;52.066;6.096;2023-02-28T07:13:32;103140.63;;;4.44;39.91
47742;BME280;33504;52.066;6.096;2023-02-28T07:16:01;103138.83;;;4.96;39.97
47742;BME280;33504;52.066;6.096;2023-02-28T07:18:29;103139.50;;;5.00;40.01
47742;BME280;33504;52.066;6.096;2023-02-28T07:20:56;103139.85;;;4.77;40.05
47742;BME280;33504;52.066;6.096;2023-02-28T07:23:24;103143.45;;;4.79;40.08
47742;BME280;33504;52.066;6.096;2023-02-28T07:25:51;103145.92;;;4.85;40.08
47742;BME280;33504;52.066;6.096;2023-02-28T07:28:17;103145.77;;;4.66;39.81
47742;BME280;33504;52.066;6.096;2023-02-28T07:30:44;103147.36;;;4.94;39.58
47742;BME280;33504;52.066;6.096;2023-02-28T07:33:12;103146.59;;;5.03;39.10
47742;BME280;33504;52.066;6.096;2023-02-28T07:35:39;103147.76;;;4.90;38.97
47742;BME280;33504;52.066;6.096;2023-02-28T07:38:06;103152.11;;;4.99;38.66
47742;BME280;33504;52.066;6.096;2023-02-28T07:40:34;103150.48;;;5.25;38.61
47742;BME280;33504;52.066;6.096;2023-02-28T07:43:02;103150.06;;;5.10;38.47
47742;BME280;33504;52.066;6.096;2023-02-28T07:45:30;103146.45;;;5.40;38.05
47742;BME280;33504;52.066;6.096;2023-02-28T07:47:57;103149.06;;;5.51;37.82
47742;BME280;33504;52.066;6.096;2023-02-28T07:50:24;103152.47;;;5.43;37.82
47742;BME280;33504;52.066;6.096;2023-02-28T07:52:51;103150.19;;;5.62;36.96
47742;BME280;33504;52.066;6.096;2023-02-28T07:55:18;103146.50;;;6.32;36.39
47742;BME280;33504;52.066;6.096;2023-02-28T07:57:45;103143.54;;;7.15;35.20
47742;BME280;33504;52.066;6.096;2023-02-28T08:00:13;103145.05;;;7.92;33.81
47742;BME280;33504;52.066;6.096;2023-02-28T08:02:40;103149.83;;;8.93;32.43
47742;BME280;33504;52.066;6.096;2023-02-28T08:05:07;103149.45;;;9.40;31.28
47742;BME280;33504;52.066;6.096;2023-02-28T08:07:35;103151.08;;;10.04;29.77
47742;BME280;33504;52.066;6.096;2023-02-28T08:10:01;103153.22;;;10.33;29.37
47742;BME280;33504;52.066;6.096;2023-02-28T08:12:29;103160.39;;;10.63;28.44
47742;BME280;33504;52.066;6.096;2023-02-28T08:14:56;103155.77;;;10.76;28.18
47742;BME280;33504;52.066;6.096;2023-02-28T08:17:23;103153.78;;;11.28;27.26
47742;BME280;33504;52.066;6.096;2023-02-28T08:19:50;103156.56;;;11.00;25.51
47742;BME280;33504;52.066;6.096;2023-02-28T08:22:17;103158.68;;;11.00;25.02
47742;BME280;33504;52.066;6.096;2023-02-28T08:24:44;103153.09;;;10.89;24.15
47742;BME280;33504;52.066;6.096;2023-02-28T08:27:11;103150.01;;;10.87;22.67
47742;BME280;33504;52.066;6.096;2023-02-28T08:29:39;103148.75;;;11.00;22.60
47742;BME280;33504;52.066;6.096;2023-02-28T08:32:06;103152.66;;;11.09;22.65
47742;BME280;33504;52.066;6.096;2023-02-28T08:34:34;103153.05;;;11.24;22.55
47742;BME280;33504;52.066;6.096;2023-02-28T08:37:01;103156.98;;;10.97;22.64
47742;BME280;33504;52.066;6.096;2023-02-28T08:39:28;103151.79;;;10.85;22.63
47742;BME280;33504;52.066;6.096;2023-02-28T08:41:55;103152.89;;;10.85;22.87
47742;BME280;33504;52.066;6.096;2023-02-28T08:44:22;103151.02;;;10.77;22.93
47742;BME280;33504;52.066;6.096;2023-02-28T08:46:49;103155.57;;;10.98;22.54
47742;BME280;33504;52.066;6.096;2023-02-28T08:49:16;103152.44;;;10.99;22.16
47742;BME280;33504;52.066;6.096;2023-02-28T08:51:42;103151.40;;;11.67;22.39
47742;BME280;33504;52.066;6.096;2023-02-28T08:54:10;103150.37;;;11.95;21.86
47742;BME280;33504;52.066;6.096;2023-02-28T08:56:36;103147.49;;;12.18;21.08
47742;BME280;33504;52.066;6.096;2023-02-28T08:59:03;103146.91;;;12.86;20.59
47742;BME280;33504;52.066;6.096;2023-02-28T09:01:30;103146.26;;;12.72;20.46
47742;BME280;33504;52.066;6.096;2023-02-28T09:03:58;103148.53;;;12.32;19.46
47742;BME280;33504;52.066;6.096;2023-02-28T09:06:26;103150.69;;;12.74;19.75
47742;BME280;33504;52.066;6.096;2023-02-28T09:08:56;103149.18;;;12.64;18.79
47742;BME280;33504;52.066;6.096;2023-02-28T09:11:24;103150.34;;;12.62;18.66
47742;BME280;33504;52.066;6.096;2023-02-28T09:13:50;103153.91;;;12.82;18.62
47742;BME280;33504;52.066;6.096;2023-02-28T09:16:17;103154.22;;;12.78;18.32
47742;BME280;33504;52.066;6.096;2023-02-28T09:18:45;103155.57;;;12.83;17.45
47742;BME280;33504;52.066;6.096;2023-02-28T09:21:14;103156.13;;;12.73;17.35
47742;BME280;33504;52.066;6.096;2023-02-28T09:23:42;103153.97;;;12.85;17.61
47742;BME280;33504;52.066;6.096;2023-02-28T09:26:13;103158.84;;;13.28;17.05
47742;BME280;33504;52.066;6.096;2023-02-28T09:28:41;103160.53;;;13.40;17.01
47742;BME280;33504;52.066;6.096;2023-02-28T09:31:12;103157.24;;;12.94;16.60
47742;BME280;33504;52.066;6.096;2023-02-28T09:33:40;103157.49;;;13.03;16.88
47742;BME280;33504;52.066;6.096;2023-02-28T09:36:07;103153.81;;;13.09;16.62
47742;BME280;33504;52.066;6.096;2023-02-28T09:38:35;103152.69;;;13.19;16.66
47742;BME280;33504;52.066;6.096;2023-02-28T09:41:08;103152.14;;;13.31;17.31
47742;BME280;33504;52.066;6.096;2023-02-28T09:43:39;103148.44;;;13.55;17.12
47742;BME280;33504;52.066;6.096;2023-02-28T09:46:14;103140.57;;;13.41;16.54
47742;BME280;33504;52.066;6.096;2023-02-28T09:48:46;103147.05;;;13.63;16.58
47742;BME280;33504;52.066;6.096;2023-02-28T09:51:28;103143.09;;;13.67;16.37
47742;BME280;33504;52.066;6.096;2023-02-28T09:53:57;103142.43;;;14.30;15.92
47742;BME280;33504;52.066;6.096;2023-02-28T09:56:30;103142.21;;;14.22;15.90
47742;BME280;33504;52.066;6.096;2023-02-28T09:59:01;103139.07;;;14.39;15.81
47742;BME280;33504;52.066;6.096;2023-02-28T10:01:35;103142.14;;;14.85;15.63
47742;BME280;33504;52.066;6.096;2023-02-28T10:04:10;103142.50;;;15.22;15.78
47742;BME280;33504;52.066;6.096;2023-02-28T10:06:46;103136.43;;;15.23;15.78
47742;BME280;33504;52.066;6.096;2023-02-28T10:09:18;103136.06;;;15.16;15.64
47742;BME280;33504;52.066;6.096;2023-02-28T10:11:46;103136.24;;;14.96;15.54
47742;BME280;33504;52.066;6.096;2023-02-28T10:14:16;103139.55;;;15.35;15.44
47742;BME280;33504;52.066;6.096;2023-02-28T10:16:46;103139.23;;;15.70;15.61
47742;BME280;33504;52.066;6.096;2023-02-28T10:19:19;103134.34;;;15.54;15.30
47742;BME280;33504;52.066;6.096;2023-02-28T10:21:53;103135.56;;;14.58;15.31
47742;BME280;33504;52.066;6.096;2023-02-28T10:24:28;103136.30;;;14.55;15.70
47742;BME280;33504;52.066;6.096;2023-02-28T10:27:00;103138.32;;;15.18;15.98
47742;BME280;33504;52.066;6.096;2023-02-28T10:29:31;103133.13;;;15.01;15.66
47742;BME280;33504;52.066;6.096;2023-02-28T10:32:01;103130.67;;;14.55;15.23
47742;BME280;33504;52.066;6.096;2023-02-28T10:34:28;103126.44;;;15.44;15.55
47742;BME280;33504;52.066;6.096;2023-02-28T10:36:56;103119.69;;;15.31;15.56
47742;BME280;33504;52.066;6.096;2023-02-28T10:39:41;103116.94;;;15.55;14.99
47742;BME280;33504;52.066;6.096;2023-02-28T10:42:26;103117.16;;;15.41;15.07
47742;BME280;33504;52.066;6.096;2023-02-28T10:45:12;103124.94;;;16.01;14.43
47742;BME280;33504;52.066;6.096;2023-02-28T10:47:49;103115.88;;;15.35;14.93
47742;BME280;33504;52.066;6.096;2023-02-28T10:50:37;103117.32;;;16.12;14.70
47742;BME280;33504;52.066;6.096;2023-02-28T10:53:28;103113.86;;;16.23;14.84
47742;BME280;33504;52.066;6.096;2023-02-28T10:55:59;103117.06;;;16.28;14.49
47742;BME280;33504;52.066;6.096;2023-02-28T10:58:29;103117.19;;;16.58;15.02
47742;BME280;33504;52.066;6.096;2023-02-28T11:00:57;103120.19;;;16.06;14.66
47742;BME280;33504;52.066;6.096;2023-02-28T11:03:30;103116.70;;;16.78;14.75
47742;BME280;33504;52.066;6.096;2023-02-28T11:05:58;103112.80;;;17.02;14.31
47742;BME280;33504;52.066;6.096;2023-02-28T11:08:27;103112.68;;;17.20;14.51
47742;BME280;33504;52.066;6.096;2023-02-28T11:10:55;103110.66;;;16.82;14.78
47742;BME280;33504;52.066;6.096;2023-02-28T11:13:27;103111.47;;;17.06;14.65
47742;BME280;33504;52.066;6.096;2023-02-28T11:15:58;103108.49;;;17.08;14.62
47742;BME280;33504;52.066;6.096;2023-02-28T11:18:29;103105.90;;;16.73;15.02
47742;BME280;33504;52.066;6.096;2023-02-28T11:20:59;103102.94;;;16.96;14.71
47742;BME280;33504;52.066;6.096;2023-02-28T11:23:30;103100.64;;;17.21;14.20
47742;BME280;33504;52.066;6.096;2023-02-28T11:26:01;103097.68;;;17.35;14.23
47742;BME280;33504;52.066;6.096;2023-02-28T11:28:31;103093.38;;;17.68;14.44
47742;BME280;33504;52.066;6.096;2023-02-28T11:31:05;103091.34;;;17.35;14.46
47742;BME280;33504;52.066;6.096;2023-02-28T11:33:41;103094.78;;;17.87;14.45
47742;BME280;33504;52.066;6.096;2023-02-28T11:36:11;103085.88;;;17.95;14.49
47742;BME280;33504;52.066;6.096;2023-02-28T11:38:39;103086.95;;;17.68;14.46
47742;BME280;33504;52.066;6.096;2023-02-28T11:41:57;103086.59;;;18.12;14.71
47742;BME280;33504;52.066;6.096;2023-02-28T11:44:38;103088.75;;;17.68;14.47
47742;BME280;33504;52.066;6.096;2023-02-28T11:47:13;103083.02;;;17.55;14.27
47742;BME280;33504;52.066;6.096;2023-02-28T11:49:49;103073.80;;;17.89;14.17
47742;BME280;33504;52.066;6.096;2023-02-28T11:52:24;103076.69;;;18.03;14.02
47742;BME280;33504;52.066;6.096;2023-02-28T11:55:06;103078.00;;;18.43;14.06
47742;BME280;33504;52.066;6.096;2023-02-28T11:57:51;103081.04;;;18.75;13.92
47742;BME280;33504;52.066;6.096;2023-02-28T12:00:35;103076.98;;;17.88;13.97
47742;BME280;33504;52.066;6.096;2023-02-28T12:03:15;103069.82;;;18.19;13.94
47742;BME280;33504;52.066;6.096;2023-02-28T12:05:48;103065.76;;;17.20;14.15
47742;BME280;33504;52.066;6.096;2023-02-28T12:08:28;103066.85;;;16.06;14.51
47742;BME280;33504;52.066;6.096;2023-02-28T12:11:06;103070.46;;;16.68;14.85
47742;BME280;33504;52.066;6.096;2023-02-28T12:13:47;103064.92;;;16.58;14.60
47742;BME280;33504;52.066;6.096;2023-02-28T12:16:27;103059.33;;;17.68;14.34
47742;BME280;33504;52.066;6.096;2023-02-28T12:19:06;103056.23;;;17.48;14.07
47742;BME280;33504;52.066;6.096;2023-02-28T12:21:54;103059.60;;;17.58;14.71
47742;BME280;33504;52.066;6.096;2023-02-28T12:24:34;103056.37;;;16.15;14.55
47742;BME280;33504;52.066;6.096;2023-02-28T12:27:09;103050.32;;;16.78;14.64
47742;BME280;33504;52.066;6.096;2023-02-28T12:29:46;103051.67;;;16.90;14.99
47742;BME280;33504;52.066;6.096;2023-02-28T12:32:18;103047.93;;;16.23;14.87
47742;BME280;33504;52.066;6.096;2023-02-28T12:34:51;103044.36;;;15.50;15.85
47742;BME280;33504;52.066;6.096;2023-02-28T12:37:24;103044.52;;;15.68;15.33
47742;BME280;33504;52.066;6.096;2023-02-28T12:39:56;103045.05;;;16.42;15.03
47742;BME280;33504;52.066;6.096;2023-02-28T12:42:29;103043.38;;;16.09;14.92
47742;BME280;33504;52.066;6.096;2023-02-28T12:44:59;103033.55;;;15.45;15.17
47742;BME280;33504;52.066;6.096;2023-02-28T12:47:26;103022.93;;;15.37;14.87
47742;BME280;33504;52.066;6.096;2023-02-28T12:49:56;103024.27;;;15.49;15.49
47742;BME280;33504;52.066;6.096;2023-02-28T12:52:31;103024.55;;;15.20;15.01
47742;BME280;33504;52.066;6.096;2023-02-28T12:55:06;103021.60;;;15.42;15.71
47742;BME280;33504;52.066;6.096;2023-02-28T12:57:40;103014.66;;;15.57;15.07
47742;BME280;33504;52.066;6.096;2023-02-28T13:00:13;103014.77;;;15.88;14.60
47742;BME280;33504;52.066;6.096;2023-02-28T13:02:58;103011.40;;;15.52;14.89
47742;BME280;33504;52.066;6.096;2023-02-28T13:05:59;103004.73;;;15.81;14.91
47742;BME280;33504;52.066;6.096;2023-02-28T13:08:55;103000.48;;;15.69;14.80
47742;BME280;33504;52.066;6.096;2023-02-28T13:11:29;103003.73;;;15.48;15.34
47742;BME280;33504;52.066;6.096;2023-02-28T13:13:59;103006.40;;;15.79;15.11